Roseau, MN

2:25 AM CST on February 06, 2016 (GMT -0600)
Roseau Municipal-Billberg | | Change Station
CLOSE
Current Station
Airport
Location: Roseau,
Elevation: 1060 ft
Nearby Weather Stations
Active Advisory: Blizzard Watch

Elev 1060 ft 48.86 °N, 95.70 °W | Updated 11 minutes ago

Overcast
Overcast
18 °F
Feels Like 11 °F
N
5
Wind Variable Wind from South

Today
High -- | Low -- °F
--% Chance of Precip.
Yesterday
High -- | Low -- °F
Precip. -- in
Pressure 29.99 in
Visibility 7.0 miles
Clouds Mostly Cloudy 7000 ft
Overcast 8500 ft
Windchill 11 °F
Dew Point 14 °F
Humidity 86%
Rainfall 0.00 in
Snow Depth Not available.
7:45 AM 5:28 PM
Waning Crescent, 7% visible
METAR KROX 060814Z AUTO 17004KT 7SM BKN070 OVC085 M08/M10 A2999 RMK AO2
Pressure 29.99 in
Visibility 7.0 miles
Clouds Mostly Cloudy 7000 ft
Overcast 8500 ft
Windchill 11 °F
Dew Point 14 °F
Humidity 86%
Rainfall 0.00 in
Snow Depth Not available.
7:45 AM 5:28 PM
Waning Crescent, 7% visible
METAR KROX 060814Z AUTO 17004KT 7SM BKN070 OVC085 M08/M10 A2999 RMK AO2

10-Day Weather Forecast

Almanac

Astronomy

Feb. 06, 2016 Rise Set
Actual Time
Civil Twilight
Nautical Twilight
Astronomical Twilight
Moon
Length of Visible Light
Length of Day
Tomorrow will be .
, % of the Moon is Illuminated

Today's Extremes

State Highs State Lows

Community

WunderPhotos

Upload Photos

1,890,933 photos uploaded!

WunderBlog® & News

Nearby

Air Quality

  Air Quality AQ Index Pollutant
Not available.

Snow Depth

Station Depth Elevation

Earthquake Activity

City Distance Mag. Time & Date
Minimum magnitude displayed is 2.5.

Coastal Water Temperatures

Place Temperature

Stations

Nearby Weather Stations

Station Location Temp. Windchill Dew Point Humidity Wind Precip. Elev Updated Type
                   

Watches & Warnings

Blizzard Watch
Issued: 3:13 PM CST Feb. 5, 2016 – National Weather Service

... Blizzard watch in effect from Sunday morning through late
Sunday night...

The National Weather Service in Grand Forks has issued a blizzard
watch... which is in effect from Sunday morning through late
Sunday night.

* Timing... blizzard conditions are possible from Sunday morning
through late Sunday night.

* Winds / visibilities... winds gusting as high as 60 mph could
cause whiteout conditions in blowing snow. Significant drifting
of the snow is likely... especially in open areas.

* Snow accumulations... total snow accumulations 2 to 4 inches are
possible.

* Impacts... travel could be very difficult to impossible Sunday
and Sunday night.

Precautionary/preparedness actions...

A blizzard watch means there is a potential for falling and/or
blowing snow with strong winds and extremely poor visibilities.
This can lead to whiteout conditions and make travel very
dangerous.